createdAt,value
2016-07-02T00:00:39.569Z,74.36
2016-07-02T00:01:39.602Z,75.09
2016-07-02T00:02:39.623Z,73.46
2016-07-02T00:03:39.651Z,74.32
2016-07-02T00:04:39.680Z,74.22
2016-07-02T00:05:39.703Z,74.41
2016-07-02T00:06:39.728Z,74.32
2016-07-02T00:07:39.758Z,74.61
2016-07-02T00:08:39.784Z,75.19
2016-07-02T00:09:54.707Z,74.32
2016-07-02T00:10:39.830Z,74.03
2016-07-02T00:12:39.890Z,74.13
2016-07-02T00:13:39.922Z,73.46
2016-07-02T00:14:39.945Z,75.19
2016-07-02T00:15:39.974Z,75.19
2016-07-02T00:16:39.994Z,74.03
2016-07-02T00:17:40.023Z,74.8
2016-07-02T00:19:40.082Z,74.41
2016-07-02T00:20:40.099Z,75.09
2016-07-02T00:21:40.131Z,74.41
2016-07-02T00:22:40.157Z,74.51
2016-07-02T00:23:40.185Z,75.24
2016-07-02T00:24:40.211Z,75.34
2016-07-02T00:25:55.140Z,75.24
2016-07-02T00:26:40.269Z,75.44
2016-07-02T00:27:40.291Z,76.01
2016-07-02T00:28:40.319Z,75.73
2016-07-02T00:29:40.344Z,75.92
2016-07-02T00:30:40.371Z,75.92
2016-07-02T00:31:40.394Z,75.82
2016-07-02T00:34:40.481Z,75.63
2016-07-02T00:35:40.509Z,76.11
2016-07-02T00:36:40.531Z,76.01
2016-07-02T00:37:40.557Z,76.01
2016-07-02T00:38:40.581Z,76.78
2016-07-02T00:39:40.605Z,76.69
2016-07-02T00:40:40.631Z,76.69
2016-07-02T00:41:55.563Z,76.11
2016-07-02T00:42:40.691Z,75.73
2016-07-02T00:43:40.717Z,75.63
2016-07-02T00:45:40.767Z,75.92
2016-07-02T00:46:40.796Z,75.73
2016-07-02T00:47:40.826Z,75.73
2016-07-02T00:48:40.847Z,75.44
2016-07-02T00:49:40.875Z,75.82
2016-07-02T00:50:40.903Z,75.82
2016-07-02T00:51:40.928Z,76.21
2016-07-02T00:52:40.952Z,75.92
2016-07-02T00:53:40.975Z,76.21
2016-07-02T00:54:41.006Z,75.79
2016-07-02T00:55:41.086Z,76.07
2016-07-02T00:56:41.064Z,75.92
2016-07-02T00:57:55.991Z,76.21
2016-07-02T00:58:41.116Z,75.73
2016-07-02T00:59:41.138Z,75.63
2016-07-02T01:00:41.172Z,76.01
2016-07-02T01:01:41.194Z,75.24
2016-07-02T01:02:41.222Z,76.11
2016-07-02T01:03:41.246Z,75.92
2016-07-02T01:04:41.266Z,75.82
2016-07-02T01:05:41.301Z,76.4
2016-07-02T01:06:41.327Z,76.17
2016-07-02T01:07:41.350Z,76.26
2016-07-02T01:08:41.380Z,76.21
2016-07-02T01:09:41.404Z,76.26
2016-07-02T01:10:41.432Z,76.07
2016-07-02T01:11:41.456Z,76.26
2016-07-02T01:12:56.381Z,76.84
2016-07-02T01:13:41.513Z,77.23
2016-07-02T01:14:41.532Z,76.75
2016-07-02T01:17:41.620Z,77.42
2016-07-02T01:18:41.638Z,77.9
2016-07-02T01:19:41.671Z,77.86
2016-07-02T01:20:41.699Z,77.86
2016-07-02T01:21:41.720Z,78.34
2016-07-02T01:22:41.750Z,79.11
2016-07-02T01:23:41.769Z,79.3
2016-07-02T01:24:41.799Z,78.92
2016-07-02T01:25:41.827Z,79.69
2016-07-02T01:26:41.847Z,79.4
2016-07-02T01:27:41.876Z,79.79
2016-07-02T01:28:41.902Z,79.98
2016-07-02T01:29:41.927Z,80.46
2016-07-02T01:30:41.958Z,80.27
2016-07-02T01:31:41.981Z,80.07
2016-07-02T01:32:42.007Z,80.46
2016-07-02T01:33:42.034Z,79.75
2016-07-02T01:34:42.066Z,80.46
2016-07-02T01:35:42.094Z,80.17
2016-07-02T01:37:42.142Z,80.04
2016-07-02T01:38:42.174Z,79.84
2016-07-02T01:39:42.193Z,80.51
2016-07-02T01:40:42.221Z,80.9
2016-07-02T01:41:42.248Z,80.71
2016-07-02T01:42:42.277Z,80.9
2016-07-02T01:43:42.298Z,80.9
2016-07-02T01:44:57.228Z,80.9
2016-07-02T01:45:42.354Z,81.76
2016-07-02T01:46:42.382Z,81.96
2016-07-02T01:47:42.407Z,82.43
2016-07-02T01:48:42.431Z,82.24
2016-07-02T01:49:42.457Z,82.43
2016-07-02T01:50:42.483Z,82.43
2016-07-02T01:51:42.511Z,83.11
2016-07-02T01:52:42.535Z,83.26
2016-07-02T01:53:42.565Z,82.97
2016-07-02T01:54:42.591Z,83.16
2016-07-02T01:55:42.615Z,82.87
2016-07-02T01:56:42.642Z,82.87
2016-07-02T01:57:42.670Z,82.49
2016-07-02T01:58:42.693Z,82.4
2016-07-02T01:59:42.721Z,81.92
2016-07-02T02:00:57.648Z,82.1
2016-07-02T02:01:42.777Z,82.2
2016-07-02T02:02:42.800Z,82.1
2016-07-02T02:03:42.825Z,82.2
2016-07-02T02:04:42.851Z,82.01
2016-07-02T02:05:42.877Z,82.01
2016-07-02T02:06:42.909Z,82.2
2016-07-02T02:07:42.930Z,82.01
2016-07-02T02:08:42.960Z,82.2
2016-07-02T02:09:42.976Z,81.92
2016-07-02T02:10:43.006Z,81.92
2016-07-02T02:11:43.032Z,82.01
2016-07-02T02:12:43.056Z,82.01
2016-07-02T02:13:43.086Z,82.05
2016-07-02T02:14:43.112Z,82.3
2016-07-02T02:15:43.138Z,82.01
2016-07-02T02:16:58.064Z,81.72
2016-07-02T02:17:43.190Z,81.86
2016-07-02T02:18:43.223Z,81.48
2016-07-02T02:19:43.237Z,81.38
2016-07-02T02:20:43.268Z,81.28
2016-07-02T02:21:43.295Z,80.99
2016-07-02T02:22:43.332Z,81.86
2016-07-02T02:24:43.376Z,81.92
2016-07-02T02:25:43.401Z,82.01
2016-07-02T02:26:43.428Z,82.2
2016-07-02T02:28:43.477Z,81.72
2016-07-02T02:29:43.502Z,82.43
2016-07-02T02:30:43.534Z,82.73
2016-07-02T02:31:43.556Z,82.4
2016-07-02T02:32:58.483Z,82.4
2016-07-02T02:33:43.609Z,82.3
2016-07-02T02:34:43.643Z,82.68
2016-07-02T02:35:43.659Z,82.3
2016-07-02T02:36:44.291Z,82.4
2016-07-02T02:37:43.712Z,83.07
2016-07-02T02:38:43.744Z,83.07
2016-07-02T02:39:43.769Z,83.07
2016-07-02T02:40:43.786Z,82.97
2016-07-02T02:41:43.816Z,83.16
2016-07-02T02:42:43.844Z,83.07
2016-07-02T02:43:43.867Z,83.16
2016-07-02T02:44:43.898Z,83.45
2016-07-02T02:45:43.922Z,83.64
2016-07-02T02:46:43.953Z,84.31
2016-07-02T02:47:58.876Z,84.41
2016-07-02T02:48:43.998Z,84.8
2016-07-02T02:49:44.027Z,84.7
2016-07-02T02:50:44.054Z,84.08
2016-07-02T02:51:44.078Z,84.22
2016-07-02T02:52:44.104Z,84.22
2016-07-02T02:53:44.126Z,84.08
2016-07-02T02:55:44.183Z,84.8
2016-07-02T02:56:44.207Z,84.27
2016-07-02T02:57:44.229Z,84.47
2016-07-02T02:58:44.257Z,84.66
2016-07-02T02:59:44.880Z,84.27
2016-07-02T03:00:44.310Z,84.75
2016-07-02T03:01:44.335Z,84.95
2016-07-02T03:02:44.360Z,84.89
2016-07-02T03:03:44.386Z,84.75
2016-07-02T03:04:44.417Z,84.66
2016-07-02T03:05:44.438Z,84.41
2016-07-02T03:06:44.465Z,84.27
2016-07-02T03:07:44.486Z,84.89
2016-07-02T03:08:44.514Z,84.37
2016-07-02T03:09:44.551Z,84.18
2016-07-02T03:10:44.568Z,84.51
2016-07-02T03:11:44.592Z,84.31
2016-07-02T03:12:44.619Z,84.37
2016-07-02T03:13:44.646Z,84.95
2016-07-02T03:14:44.673Z,84.08
2016-07-02T03:15:44.694Z,84.37
2016-07-02T03:16:44.721Z,84.03
2016-07-02T03:17:44.749Z,84.03
2016-07-02T03:18:44.777Z,83.45
2016-07-02T03:19:59.704Z,83.74
2016-07-02T03:20:44.830Z,83.64
2016-07-02T03:21:44.857Z,83.54
2016-07-02T03:22:44.880Z,83.74
2016-07-02T03:23:44.900Z,83.54
2016-07-02T03:24:44.930Z,83.54
2016-07-02T03:25:44.962Z,83.36
2016-07-02T03:28:45.029Z,83.26
2016-07-02T03:29:45.061Z,84.22
2016-07-02T03:30:45.087Z,84.22
2016-07-02T03:31:45.116Z,83.74
2016-07-02T03:32:45.140Z,83.36
2016-07-02T03:33:45.162Z,82.87
2016-07-02T03:34:45.188Z,82.97
2016-07-02T03:36:00.116Z,83.16
2016-07-02T03:36:45.246Z,83.07
2016-07-02T03:37:45.266Z,83.07
2016-07-02T03:38:45.291Z,83.16
2016-07-02T03:39:45.319Z,83.16
2016-07-02T03:40:45.344Z,82.97
2016-07-02T03:41:45.376Z,82.97
2016-07-02T03:43:45.430Z,82.49
2016-07-02T03:44:45.454Z,82.59
2016-07-02T03:45:45.479Z,82.92
2016-07-02T03:46:45.500Z,82.24
2016-07-02T03:47:45.530Z,82.43
2016-07-02T03:48:45.554Z,81.86
2016-07-02T03:49:45.578Z,81.76
2016-07-02T03:50:45.601Z,81.67
2016-07-02T03:52:00.531Z,81.38
2016-07-02T03:52:45.660Z,81.38
2016-07-02T03:53:45.683Z,81.38
2016-07-02T03:54:45.712Z,80.9
2016-07-02T03:55:45.735Z,80.61
2016-07-02T03:56:45.764Z,80.65
2016-07-02T03:57:45.787Z,80.55
2016-07-02T03:58:45.811Z,80.65
2016-07-02T03:59:45.838Z,80.84
2016-07-02T04:00:45.869Z,80.46
2016-07-02T04:01:45.898Z,81.23
2016-07-02T04:02:45.921Z,80.84
2016-07-02T04:03:45.949Z,80.75
2016-07-02T04:04:45.975Z,80.46
2016-07-02T04:05:45.994Z,79.5
2016-07-02T04:06:46.027Z,79.4
2016-07-02T04:08:00.951Z,79.11
2016-07-02T04:08:46.075Z,79.63
2016-07-02T04:09:46.103Z,79.25
2016-07-02T04:10:46.130Z,78.77
2016-07-02T04:11:46.152Z,77.71
2016-07-02T04:12:46.180Z,77.26
2016-07-02T04:13:46.208Z,77.17
2016-07-02T04:14:46.233Z,74.99
2016-07-02T04:15:46.265Z,71.98
2016-07-02T04:16:46.288Z,68.19
2016-07-02T04:17:46.319Z,65.56
2016-07-02T04:18:46.344Z,64.27
2016-07-02T04:19:46.368Z,61.63
2016-07-02T04:20:46.399Z,60.88
2016-07-02T04:21:46.425Z,61.92
2016-07-02T04:23:01.353Z,62.76
2016-07-02T04:23:46.485Z,63.6
2016-07-02T04:24:46.510Z,63.02
2016-07-02T04:25:46.539Z,60.82
2016-07-02T04:26:46.569Z,59.14
2016-07-02T04:27:46.591Z,57.55
2016-07-02T04:28:46.625Z,55.44
2016-07-02T04:29:46.647Z,53.08
2016-07-02T04:30:46.684Z,51.38
2016-07-02T04:31:46.709Z,50.43
2016-07-02T04:32:46.743Z,47.86
2016-07-02T04:33:46.770Z,47.59
2016-07-02T04:35:46.824Z,46.66
2016-07-02T04:36:46.907Z,44.32
2016-07-02T04:37:46.885Z,43.66
2016-07-02T04:38:46.919Z,43.19
2016-07-02T04:39:46.942Z,42.63
2016-07-02T04:40:46.975Z,42.24
2016-07-02T04:41:47.010Z,41.58
2016-07-02T04:42:47.044Z,40.72
2016-07-02T04:43:47.073Z,39.08
2016-07-02T04:44:47.105Z,38.9
2016-07-02T04:46:47.166Z,39.1
2016-07-02T04:48:47.234Z,38.53
2016-07-02T04:49:47.264Z,37.65
2016-07-02T04:50:47.292Z,37.87
2016-07-02T04:51:47.318Z,36.59
2016-07-02T04:52:47.360Z,36.43
2016-07-02T04:53:47.395Z,36.24
2016-07-02T04:55:02.323Z,34.88
2016-07-02T04:55:47.455Z,34.03
2016-07-02T04:56:47.486Z,33.95
2016-07-02T04:57:47.526Z,33.48
2016-07-02T04:58:47.562Z,32.51
2016-07-02T04:59:47.588Z,31.54
2016-07-02T05:01:47.656Z,30.77
2016-07-02T05:02:47.687Z,32.98
2016-07-02T05:05:47.782Z,34.96
2016-07-02T05:06:47.820Z,34.11
2016-07-02T05:07:47.852Z,32.86
2016-07-02T05:08:47.886Z,31.33
2016-07-02T05:09:47.914Z,31.73
2016-07-02T05:11:02.857Z,30.76
2016-07-02T05:11:47.982Z,29.11
2016-07-02T05:12:48.016Z,28.85
2016-07-02T05:13:48.055Z,29.63
2016-07-02T05:14:48.088Z,28.75
2016-07-02T05:15:48.120Z,29.23
2016-07-02T05:16:48.157Z,28.55
2016-07-02T05:18:48.240Z,29.52
2016-07-02T05:19:48.257Z,30.85
2016-07-02T05:20:48.299Z,32.18
2016-07-02T05:21:48.329Z,34.9
2016-07-02T05:22:48.360Z,36.04
2016-07-02T05:23:48.391Z,36
2016-07-02T05:24:48.427Z,37.65
2016-07-02T05:25:48.459Z,38.79
2016-07-02T05:27:03.396Z,38.3
2016-07-02T05:27:48.524Z,39.55
2016-07-02T05:28:48.563Z,39.72
2016-07-02T05:29:48.588Z,40.78
2016-07-02T05:31:48.654Z,42.4
2016-07-02T05:32:48.691Z,43.47
2016-07-02T05:33:48.717Z,43.44
2016-07-02T05:34:48.755Z,43.44
2016-07-02T05:37:48.849Z,45.74
2016-07-02T05:38:48.878Z,45.45
2016-07-02T05:39:48.910Z,44.65
2016-07-02T05:40:48.944Z,43.4
2016-07-02T05:41:48.968Z,44.1
2016-07-02T05:43:03.902Z,44.4
2016-07-02T05:43:49.035Z,44.98
2016-07-02T05:44:49.065Z,44.49
2016-07-02T05:45:49.092Z,45.47
2016-07-02T05:46:49.125Z,44.2
2016-07-02T05:47:49.161Z,43.05
2016-07-02T05:48:49.187Z,44.49
2016-07-02T05:49:49.217Z,44.4
2016-07-02T05:50:49.248Z,44.3
2016-07-02T05:51:49.278Z,44.2
2016-07-02T05:52:49.313Z,44.3
2016-07-02T05:53:49.345Z,42.86
2016-07-02T05:54:49.381Z,43.35
2016-07-02T05:55:49.402Z,41.71
2016-07-02T05:56:49.435Z,40.99
2016-07-02T05:58:04.369Z,40.8
2016-07-02T05:58:49.492Z,42.41
2016-07-02T05:59:49.522Z,42.49
2016-07-02T06:00:49.552Z,43.84
2016-07-02T06:02:49.616Z,45.37
2016-07-02T06:03:50.252Z,45.67
2016-07-02T06:05:49.713Z,44.48
2016-07-02T06:06:49.745Z,45.35
2016-07-02T06:07:49.778Z,44.69
2016-07-02T06:09:49.839Z,45.06
2016-07-02T06:10:49.866Z,44.96
2016-07-02T06:11:49.895Z,45.45
2016-07-02T06:12:49.919Z,45.54
2016-07-02T06:13:49.958Z,44.48
2016-07-02T06:14:49.986Z,43.23
2016-07-02T06:15:50.013Z,41.73
2016-07-02T06:16:50.066Z,40.89
2016-07-02T06:17:50.076Z,41.38
2016-07-02T06:18:50.110Z,41.48
2016-07-02T06:21:50.199Z,42.71
2016-07-02T06:22:50.234Z,41.42
2016-07-02T06:23:50.261Z,40.78
2016-07-02T06:24:50.300Z,38.77
2016-07-02T06:25:50.324Z,36.18
2016-07-02T06:26:50.354Z,34.38
2016-07-02T06:27:50.388Z,33.44
2016-07-02T06:28:50.427Z,32.66
2016-07-02T06:30:05.355Z,34.33
2016-07-02T06:30:50.485Z,33.17
2016-07-02T06:31:50.514Z,32.51
2016-07-02T06:32:50.554Z,32.5
2016-07-02T06:33:50.578Z,31.22
2016-07-02T06:34:50.619Z,32.98
2016-07-02T06:35:50.643Z,34.42
2016-07-02T06:36:50.676Z,34.01
2016-07-02T06:37:50.705Z,35.75
2016-07-02T06:38:50.748Z,36.41
2016-07-02T06:39:50.780Z,36.49
2016-07-02T06:40:50.815Z,37.65
2016-07-02T06:41:50.843Z,38.32
2016-07-02T06:42:50.877Z,38.69
2016-07-02T06:43:50.905Z,39.06
2016-07-02T06:44:50.941Z,39.55
2016-07-02T06:46:05.871Z,40.14
2016-07-02T06:46:51.001Z,40.45
2016-07-02T06:47:51.030Z,38.59
2016-07-02T06:50:51.137Z,38.71
2016-07-02T06:51:51.761Z,38.61
2016-07-02T06:52:51.200Z,38.71
2016-07-02T06:53:51.223Z,37.54
2016-07-02T06:54:51.254Z,37.06
2016-07-02T06:55:51.288Z,34.86
2016-07-02T06:56:51.319Z,33.15
2016-07-02T06:57:51.353Z,32.04
2016-07-02T06:58:51.383Z,31.15
2016-07-02T06:59:51.419Z,30.87
2016-07-02T07:00:51.451Z,32.14
2016-07-02T07:02:06.383Z,31.43
2016-07-02T07:02:51.515Z,30.87
2016-07-02T07:03:51.545Z,30.59
2016-07-02T07:04:51.590Z,29.24
2016-07-02T07:05:51.616Z,28.48
2016-07-02T07:06:51.645Z,27.22
2016-07-02T07:07:51.678Z,26.06
2016-07-02T07:08:51.714Z,26.25
2016-07-02T07:09:51.748Z,25.48
2016-07-02T07:10:51.777Z,25.77
2016-07-02T07:11:51.820Z,25.86
2016-07-02T07:12:51.854Z,25.57
2016-07-02T07:13:51.883Z,25.98
2016-07-02T07:14:51.930Z,25.19
2016-07-02T07:15:51.959Z,24.82
2016-07-02T07:16:51.990Z,24.82
2016-07-02T07:18:06.930Z,23.54
2016-07-02T07:18:52.065Z,23.37
2016-07-02T07:19:52.097Z,22.78
2016-07-02T07:20:52.136Z,23.58
2016-07-02T07:21:52.173Z,24.24
2016-07-02T07:22:52.207Z,26.26
2016-07-02T07:23:52.247Z,26.83
2016-07-02T07:24:52.281Z,26.51
2016-07-02T07:25:52.319Z,27.76
2016-07-02T07:26:52.353Z,27.84
2016-07-02T07:27:52.385Z,28.03
2016-07-02T07:28:52.419Z,29.39
2016-07-02T07:29:52.454Z,29.77
2016-07-02T07:30:52.491Z,30.14
2016-07-02T07:31:52.526Z,30.52
2016-07-02T07:33:07.460Z,30.9
2016-07-02T07:33:52.594Z,30.88
2016-07-02T07:34:52.627Z,31.84
2016-07-02T07:35:52.655Z,32.32
2016-07-02T07:36:52.695Z,32.78
2016-07-02T07:37:52.727Z,34.33
2016-07-02T07:38:52.759Z,34.8
2016-07-02T07:39:52.793Z,35.17
2016-07-02T07:40:52.825Z,36.33
2016-07-02T07:41:52.858Z,36.41
2016-07-02T07:42:52.895Z,36.41
2016-07-02T07:43:52.926Z,37.38
2016-07-02T07:44:52.957Z,36.82
2016-07-02T07:45:52.992Z,36.62
2016-07-02T07:46:53.024Z,37.77
2016-07-02T07:47:53.058Z,38.26
2016-07-02T07:48:53.087Z,37.46
2016-07-02T07:49:53.132Z,38.73
2016-07-02T07:50:53.152Z,38.34
2016-07-02T07:51:53.183Z,38.24
2016-07-02T07:52:53.209Z,39
2016-07-02T07:53:53.244Z,39.59
2016-07-02T07:54:53.274Z,40.06
2016-07-02T07:55:53.312Z,41.2
2016-07-02T07:56:53.341Z,42.66
2016-07-02T07:57:53.375Z,45.57
2016-07-02T07:58:53.401Z,47.39
2016-07-02T07:59:53.432Z,50.75
2016-07-02T08:00:53.466Z,51.01
2016-07-02T08:01:53.491Z,50.92
2016-07-02T08:03:53.555Z,52.45
2016-07-02T08:05:08.490Z,53.52
2016-07-02T08:05:53.617Z,53.61
2016-07-02T08:06:53.653Z,54.07
2016-07-02T08:07:53.683Z,54.07
2016-07-02T08:08:53.715Z,54.94
2016-07-02T08:09:53.748Z,55.14
2016-07-02T08:10:53.779Z,54.82
2016-07-02T08:11:53.801Z,55.5
2016-07-02T08:13:53.864Z,55.02
2016-07-02T08:14:53.892Z,54.92
2016-07-02T08:15:53.928Z,54.92
2016-07-02T08:16:53.955Z,55.6
2016-07-02T08:17:53.980Z,54.63
2016-07-02T08:18:54.009Z,54.82
2016-07-02T08:19:54.044Z,55.08
2016-07-02T08:21:08.975Z,56.37
2016-07-02T08:21:54.108Z,56.57
2016-07-02T08:22:54.135Z,56.15
2016-07-02T08:23:54.165Z,56.93
2016-07-02T08:24:54.194Z,56.83
2016-07-02T08:25:54.228Z,55.6
2016-07-02T08:26:54.255Z,54.72
2016-07-02T08:27:54.285Z,55.11
2016-07-02T08:28:54.313Z,54.36
2016-07-02T08:29:54.348Z,54.07
2016-07-02T08:30:54.376Z,53.88
2016-07-02T08:31:54.398Z,54.27
2016-07-02T08:32:54.429Z,53.39
2016-07-02T08:33:55.065Z,53.39
2016-07-02T08:34:54.496Z,53.2
2016-07-02T08:35:54.521Z,53.78
2016-07-02T08:37:09.454Z,54.14
2016-07-02T08:37:54.576Z,54.24
2016-07-02T08:38:54.610Z,54.05
2016-07-02T08:39:54.638Z,53.75
2016-07-02T08:41:54.699Z,54.34
2016-07-02T08:42:54.726Z,54.44
2016-07-02T08:43:54.760Z,53.85
2016-07-02T08:44:54.788Z,52.42
2016-07-02T08:45:54.818Z,52.42
2016-07-02T08:46:54.848Z,52.03
2016-07-02T08:47:54.873Z,51.67
2016-07-02T08:48:54.903Z,52.03
2016-07-02T08:49:54.935Z,50.6
2016-07-02T08:50:54.960Z,50.73
2016-07-02T08:51:54.993Z,50.99
2016-07-02T08:53:09.925Z,51.21
2016-07-02T08:53:55.060Z,50.6
2016-07-02T08:54:55.083Z,50.53
2016-07-02T08:55:55.105Z,50.63
2016-07-02T08:56:55.135Z,50.99
2016-07-02T08:57:55.171Z,51.57
2016-07-02T08:58:55.200Z,51.28
2016-07-02T08:59:55.245Z,51.28
2016-07-02T09:00:55.259Z,52.15
2016-07-02T09:01:55.294Z,51.97
2016-07-02T09:02:55.320Z,50.56
2016-07-02T09:03:55.349Z,49.97
2016-07-02T09:04:55.377Z,49.02
2016-07-02T09:05:55.408Z,49.51
2016-07-02T09:06:55.440Z,48.54
2016-07-02T09:08:10.373Z,48.93
2016-07-02T09:08:55.500Z,49.51
2016-07-02T09:09:55.525Z,49.1
2016-07-02T09:10:55.556Z,49.1
2016-07-02T09:11:55.586Z,50.53
2016-07-02T09:12:55.628Z,49.46
2016-07-02T09:13:55.651Z,49.76
2016-07-02T09:14:55.679Z,49.76
2016-07-02T09:15:55.708Z,50.14
2016-07-02T09:17:55.768Z,49.1
2016-07-02T09:18:55.793Z,49.66
2016-07-02T09:19:55.827Z,49.29
2016-07-02T09:20:55.852Z,49
2016-07-02T09:21:55.882Z,49.1
2016-07-02T09:22:55.908Z,49.19
2016-07-02T09:23:55.942Z,48.68
2016-07-02T09:24:55.965Z,49.46
2016-07-02T09:25:56.000Z,48.97
2016-07-02T09:26:56.029Z,49.19
2016-07-02T09:27:56.058Z,48.71
2016-07-02T09:28:56.087Z,49
2016-07-02T09:29:56.125Z,49
2016-07-02T09:30:56.153Z,48.8
2016-07-02T09:31:56.185Z,48.34
2016-07-02T09:32:56.209Z,48.34
2016-07-02T09:34:56.268Z,47.96
2016-07-02T09:35:56.303Z,47.59
2016-07-02T09:37:56.363Z,46.51
2016-07-02T09:38:56.386Z,46.71
2016-07-02T09:40:11.322Z,45.74
2016-07-02T09:40:56.446Z,45.47
2016-07-02T09:41:56.473Z,44.89
2016-07-02T09:42:56.510Z,44.98
2016-07-02T09:43:56.538Z,45.67
2016-07-02T09:44:56.567Z,44.59
2016-07-02T09:45:56.593Z,44.4
2016-07-02T09:46:56.630Z,44.42
2016-07-02T09:47:56.654Z,43.84
2016-07-02T09:48:56.736Z,44.13
2016-07-02T09:49:56.719Z,44.03
2016-07-02T09:51:56.777Z,44.03
2016-07-02T09:52:56.810Z,44.52
2016-07-02T09:53:56.836Z,44.98
2016-07-02T09:54:56.870Z,44.23
2016-07-02T09:56:11.802Z,44.42
2016-07-02T09:56:56.929Z,44.42
2016-07-02T09:57:57.567Z,44.05
2016-07-02T09:58:56.986Z,42.88
2016-07-02T09:59:57.014Z,42.16
2016-07-02T10:00:57.049Z,41.77
2016-07-02T10:01:57.081Z,42.36
2016-07-02T10:02:57.112Z,42.93
2016-07-02T10:03:57.139Z,42.41
2016-07-02T10:04:57.167Z,43.68
2016-07-02T10:05:57.200Z,43.57
2016-07-02T10:06:57.228Z,44.52
2016-07-02T10:07:57.265Z,44.79
2016-07-02T10:08:57.290Z,45.47
2016-07-02T10:09:57.315Z,45.94
2016-07-02T10:10:57.352Z,46.13
2016-07-02T10:12:12.281Z,46.88
2016-07-02T10:12:57.402Z,46.78
2016-07-02T10:13:57.441Z,47.08
2016-07-02T10:14:57.469Z,47.56
2016-07-02T10:15:57.501Z,47.08
2016-07-02T10:16:57.528Z,47.54
2016-07-02T10:17:57.555Z,48.22
2016-07-02T10:18:57.583Z,49.27
2016-07-02T10:19:57.615Z,49.54
2016-07-02T10:20:57.643Z,50.41
2016-07-02T10:21:57.674Z,51.91
2016-07-02T10:22:57.704Z,52.11
2016-07-02T10:23:57.737Z,52.28
2016-07-02T10:24:57.771Z,52.11
2016-07-02T10:25:57.798Z,52.11
2016-07-02T10:26:57.829Z,52.95
2016-07-02T10:28:12.758Z,54.19
2016-07-02T10:28:57.881Z,54.33
2016-07-02T10:29:57.910Z,54.16
2016-07-02T10:30:57.942Z,54.16
2016-07-02T10:31:57.971Z,54.03
2016-07-02T10:32:57.998Z,54.26
2016-07-02T10:33:58.030Z,54.91
2016-07-02T10:34:58.060Z,55.07
2016-07-02T10:35:58.085Z,55.58
2016-07-02T10:36:58.119Z,56.65
2016-07-02T10:37:58.148Z,56.85
2016-07-02T10:38:58.179Z,56.82
2016-07-02T10:40:58.234Z,57.76
2016-07-02T10:41:58.261Z,57.69
2016-07-02T10:43:13.194Z,57.46
2016-07-02T10:43:58.321Z,57.69
2016-07-02T10:44:58.342Z,56.65
2016-07-02T10:45:58.373Z,56.72
2016-07-02T10:46:58.402Z,56.82
2016-07-02T10:47:58.434Z,57.66
2016-07-02T10:48:58.470Z,58.44
2016-07-02T10:49:58.495Z,58.7
2016-07-02T10:50:58.530Z,58.53
2016-07-02T10:51:58.558Z,58.14
2016-07-02T10:52:58.585Z,58.14
2016-07-02T10:53:58.601Z,58.34
2016-07-02T10:55:58.676Z,58.24
2016-07-02T10:56:58.690Z,58.82
2016-07-02T10:57:58.722Z,62.5
2016-07-02T10:58:58.747Z,62.5
2016-07-02T10:59:58.785Z,63.08
2016-07-02T11:00:58.808Z,64.69
2016-07-02T11:01:58.838Z,68.01
2016-07-02T11:02:58.865Z,68.55
2016-07-02T11:03:58.892Z,71.8
2016-07-02T11:04:58.922Z,72.28
2016-07-02T11:05:58.955Z,73.06
2016-07-02T11:07:59.010Z,77.26
2016-07-02T11:08:59.041Z,76.2
2016-07-02T11:09:59.072Z,77.26
2016-07-02T11:10:59.101Z,77.84
2016-07-02T11:11:59.120Z,79
2016-07-02T11:12:59.153Z,80.12
2016-07-02T11:13:59.180Z,80.18
2016-07-02T11:15:14.108Z,80.66
2016-07-02T11:15:59.232Z,80.56
2016-07-02T11:16:59.284Z,81.62
2016-07-02T11:17:59.293Z,81.91
2016-07-02T11:18:59.324Z,79.64
2016-07-02T11:19:59.351Z,79.89
2016-07-02T11:20:59.381Z,81.52
2016-07-02T11:22:59.436Z,80.85
2016-07-02T11:23:59.459Z,81.91
2016-07-02T11:24:59.488Z,82.2
2016-07-02T11:25:59.519Z,80.99
2016-07-02T11:27:59.571Z,78.67
2016-07-02T11:28:59.602Z,78.86
2016-07-02T11:29:59.628Z,78.42
2016-07-02T11:31:14.562Z,79
2016-07-02T11:31:59.688Z,78.81
2016-07-02T11:32:59.732Z,79.29
2016-07-02T11:33:59.745Z,80.12
2016-07-02T11:34:59.773Z,79.74
2016-07-02T11:36:59.828Z,80.66
2016-07-02T11:39:59.911Z,80.66
2016-07-02T11:40:59.943Z,81.33
2016-07-02T11:41:59.965Z,82.97
2016-07-02T11:42:59.998Z,82.87
2016-07-02T11:44:00.024Z,81.33
2016-07-02T11:45:00.049Z,81.58
2016-07-02T11:46:00.082Z,81.87
2016-07-02T11:47:15.005Z,81.43
2016-07-02T11:48:00.139Z,81.14
2016-07-02T11:49:00.167Z,80.85
2016-07-02T11:50:00.191Z,79.79
2016-07-02T11:51:00.215Z,80.18
2016-07-02T11:52:00.245Z,77.76
2016-07-02T11:53:00.278Z,79.21
2016-07-02T11:54:00.303Z,77.86
2016-07-02T11:55:00.332Z,78.69
2016-07-02T11:57:00.385Z,78.98
2016-07-02T11:58:00.411Z,78.4
2016-07-02T11:59:00.438Z,77.59
2016-07-02T12:00:00.473Z,79.03
2016-07-02T12:01:00.497Z,78.85
2016-07-02T12:02:00.522Z,79.33
2016-07-02T12:03:15.458Z,78.56
2016-07-02T12:04:00.583Z,79.48
2016-07-02T12:05:00.608Z,79.58
2016-07-02T12:06:00.635Z,79.77
2016-07-02T12:08:00.693Z,80.63
2016-07-02T12:09:00.720Z,80.83
2016-07-02T12:10:00.800Z,82.46
2016-07-02T12:11:00.769Z,81.35
2016-07-02T12:12:00.800Z,80.87
2016-07-02T12:13:00.828Z,80.83
2016-07-02T12:14:00.856Z,81.7
2016-07-02T12:15:00.884Z,81.12
2016-07-02T12:16:00.910Z,81.88
2016-07-02T12:17:00.949Z,81.21
2016-07-02T12:18:15.864Z,82.56
2016-07-02T12:19:00.996Z,83
2016-07-02T12:20:01.017Z,83
2016-07-02T12:21:01.043Z,84.01
2016-07-02T12:22:01.070Z,84.21
2016-07-02T12:23:01.103Z,83.53
2016-07-02T12:24:01.126Z,85.36
2016-07-02T12:25:01.155Z,85.32
2016-07-02T12:26:01.182Z,85.51
2016-07-02T12:27:01.215Z,84.55
2016-07-02T12:28:01.232Z,84.74
2016-07-02T12:29:01.264Z,84.5
2016-07-02T12:30:01.289Z,84.55
2016-07-02T12:31:01.320Z,84.36
2016-07-02T12:32:01.341Z,83.3
2016-07-02T12:33:01.378Z,84.74
2016-07-02T12:34:01.397Z,85.03
2016-07-02T12:35:01.427Z,84.64
2016-07-02T12:36:01.448Z,85.08
2016-07-02T12:37:01.491Z,84.89
2016-07-02T12:38:01.503Z,84.94
2016-07-02T12:39:01.535Z,82.92
2016-07-02T12:41:01.600Z,82.59
2016-07-02T12:42:01.613Z,83.74
2016-07-02T12:43:01.643Z,83.54
2016-07-02T12:44:01.664Z,83.64
2016-07-02T12:45:02.300Z,84.31
2016-07-02T12:46:01.723Z,82.1
2016-07-02T12:47:01.746Z,83.74
2016-07-02T12:48:01.775Z,83.16
2016-07-02T12:49:01.803Z,81.09
2016-07-02T12:50:16.729Z,81.38
2016-07-02T12:51:01.860Z,80.61
2016-07-02T12:52:01.878Z,79.94
2016-07-02T12:53:01.909Z,79.27
2016-07-02T12:54:01.935Z,80.22
2016-07-02T12:55:01.961Z,79.75
2016-07-02T12:56:01.990Z,80.61
2016-07-02T12:57:02.019Z,80.9
2016-07-02T12:59:02.072Z,80.04
2016-07-02T13:01:02.122Z,79.6
2016-07-02T13:02:02.146Z,80.13
2016-07-02T13:03:02.179Z,79.55
2016-07-02T13:04:02.199Z,79.6
2016-07-02T13:05:02.231Z,79.21
2016-07-02T13:06:17.155Z,77.96
2016-07-02T13:07:02.282Z,78.5
2016-07-02T13:08:02.308Z,80.04
2016-07-02T13:09:02.338Z,77.73
2016-07-02T13:11:02.385Z,78.78
2016-07-02T13:12:02.413Z,78.98
2016-07-02T13:13:02.445Z,77.92
2016-07-02T13:14:02.467Z,79.17
2016-07-02T13:15:02.498Z,78.88
2016-07-02T13:16:02.521Z,79.65
2016-07-02T13:17:02.551Z,78.59
2016-07-02T13:18:02.578Z,79.32
2016-07-02T13:19:02.597Z,78.4
2016-07-02T13:20:02.629Z,78.78
2016-07-02T13:21:02.654Z,78.11
2016-07-02T13:22:17.579Z,78.63
2016-07-02T13:23:02.711Z,76.04
2016-07-02T13:24:02.731Z,74.79
2016-07-02T13:25:02.758Z,75.56
2016-07-02T13:26:02.787Z,74.21
2016-07-02T13:27:02.817Z,74.3
2016-07-02T13:28:02.838Z,75.37
2016-07-02T13:30:02.894Z,73.73
2016-07-02T13:31:02.915Z,73.63
2016-07-02T13:32:02.943Z,75.07
2016-07-02T13:33:02.972Z,76.9
2016-07-02T13:34:02.995Z,75.11
2016-07-02T13:35:03.023Z,75.11
2016-07-02T13:36:03.055Z,73.83
2016-07-02T13:37:03.084Z,75.75
2016-07-02T13:38:18.009Z,73.25
2016-07-02T13:39:03.136Z,72.19
2016-07-02T13:40:03.164Z,70.94
2016-07-02T13:41:03.183Z,71.04
2016-07-02T13:42:03.214Z,73.02
2016-07-02T13:43:03.245Z,73.54
2016-07-02T13:44:03.268Z,71.91
2016-07-02T13:45:03.304Z,71.14
2016-07-02T13:46:03.319Z,70.27
2016-07-02T13:47:03.352Z,71.14
2016-07-02T13:48:03.376Z,70.94
2016-07-02T13:49:03.400Z,72.25
2016-07-02T13:50:03.434Z,71.52